createdAt,value
2019-05-20T00:02:25.855Z,19.07
2019-05-20T00:04:48.441Z,19.27
2019-05-20T00:07:18.720Z,19.40
2019-05-20T00:09:49.174Z,21.27
2019-05-20T00:12:19.487Z,18.00
2019-05-20T00:14:49.690Z,20.00
2019-05-20T00:17:19.867Z,20.30
2019-05-20T00:19:51.319Z,20.40
2019-05-20T00:22:21.527Z,20.10
2019-05-20T00:24:51.859Z,20.60
2019-05-20T00:27:21.884Z,21.83
2019-05-20T00:29:52.611Z,21.77
2019-05-20T00:32:22.537Z,23.17
2019-05-20T00:34:52.454Z,21.03
2019-05-20T00:37:22.641Z,25.33
2019-05-20T00:39:52.715Z,23.53
2019-05-20T00:42:22.903Z,20.93
2019-05-20T00:44:54.646Z,22.97
2019-05-20T00:47:24.766Z,23.80
2019-05-20T00:49:54.845Z,20.23
2019-05-20T00:52:25.052Z,19.40
2019-05-20T00:54:57.901Z,20.10
2019-05-20T00:57:28.013Z,19.43
2019-05-20T00:59:58.141Z,25.30
2019-05-20T01:02:28.200Z,22.83
2019-05-20T01:04:58.385Z,22.43
2019-05-20T01:07:28.455Z,22.87
2019-05-20T01:09:58.952Z,22.67
2019-05-20T01:12:28.874Z,24.03
2019-05-20T01:14:59.076Z,27.27
2019-05-20T01:17:29.083Z,24.80
2019-05-20T01:19:59.220Z,21.97
2019-05-20T01:22:29.587Z,22.10
2019-05-20T01:25:00.230Z,23.60
2019-05-20T01:27:30.408Z,23.60
2019-05-20T01:30:00.577Z,20.00
2019-05-20T01:32:30.548Z,25.97
2019-05-20T01:35:00.847Z,24.53
2019-05-20T01:37:31.380Z,30.93
2019-05-20T01:40:01.522Z,29.97
2019-05-20T01:42:31.528Z,29.03
2019-05-20T01:45:01.617Z,28.73
2019-05-20T01:47:33.303Z,24.40
2019-05-20T01:50:08.982Z,26.20
2019-05-20T01:52:39.017Z,26.40
2019-05-20T01:55:09.897Z,27.30
2019-05-20T01:57:40.080Z,27.97
2019-05-20T02:00:10.955Z,34.23
2019-05-20T02:02:41.254Z,30.97
2019-05-20T02:05:11.983Z,26.00
2019-05-20T02:07:42.234Z,29.10
2019-05-20T02:10:13.194Z,30.20
2019-05-20T02:12:43.366Z,30.20
2019-05-20T02:15:23.791Z,29.87
2019-05-20T02:17:53.857Z,31.13
2019-05-20T02:20:24.124Z,30.80
2019-05-20T02:22:57.191Z,30.23
2019-05-20T02:25:27.132Z,29.97
2019-05-20T02:27:57.138Z,32.37
2019-05-20T02:30:27.277Z,37.50
2019-05-20T02:32:57.554Z,31.30
2019-05-20T02:35:28.253Z,30.30
2019-05-20T02:37:58.497Z,28.60
2019-05-20T02:40:28.704Z,28.80
2019-05-20T02:42:59.737Z,33.93
2019-05-20T02:45:30.007Z,32.43
2019-05-20T02:47:59.950Z,26.40
2019-05-20T02:50:30.078Z,29.43
2019-05-20T02:53:00.235Z,28.30
2019-05-20T02:55:30.650Z,35.13
2019-05-20T02:58:01.367Z,34.00
2019-05-20T03:00:31.433Z,35.93
2019-05-20T03:03:01.645Z,35.27
2019-05-20T03:05:32.107Z,33.83
2019-05-20T03:08:02.816Z,35.70
2019-05-20T03:10:32.856Z,34.30
2019-05-20T03:13:03.034Z,35.90
2019-05-20T03:15:34.171Z,33.63
2019-05-20T03:18:04.456Z,37.30
2019-05-20T03:20:34.476Z,34.90
2019-05-20T03:23:05.188Z,36.40
2019-05-20T03:25:35.416Z,41.50
2019-05-20T03:28:05.365Z,36.00
2019-05-20T03:30:35.344Z,34.83
2019-05-20T03:33:05.580Z,39.10
2019-05-20T03:35:36.161Z,38.27
2019-05-20T03:38:06.196Z,34.23
2019-05-20T03:40:36.353Z,39.50
2019-05-20T03:43:06.468Z,47.97
2019-05-20T03:45:37.052Z,52.77
2019-05-20T03:48:07.022Z,47.33
2019-05-20T03:50:37.155Z,49.83
2019-05-20T03:53:07.925Z,48.17
2019-05-20T03:55:38.145Z,43.30
2019-05-20T03:58:08.309Z,46.20
2019-05-20T04:00:46.152Z,41.10
2019-05-20T04:03:16.846Z,50.60
2019-05-20T04:05:47.194Z,53.47
2019-05-20T04:08:17.751Z,49.73
2019-05-20T04:10:48.063Z,48.23
2019-05-20T04:13:19.627Z,52.10
2019-05-20T04:15:49.775Z,63.57
2019-05-20T04:18:19.849Z,56.33
2019-05-20T04:20:50.257Z,63.13
2019-05-20T04:23:20.593Z,56.83
2019-05-20T04:25:50.523Z,60.33
2019-05-20T04:28:20.717Z,65.13
2019-05-20T04:30:51.313Z,56.70
2019-05-20T04:33:21.495Z,63.00
2019-05-20T04:35:51.400Z,54.80
2019-05-20T04:38:24.124Z,60.07
2019-05-20T04:40:54.403Z,72.60
2019-05-20T04:43:24.391Z,71.10
2019-05-20T04:45:54.791Z,61.47
2019-05-20T04:48:25.324Z,63.57
2019-05-20T04:50:55.273Z,80.10
2019-05-20T04:53:44.217Z,78.03
2019-05-20T04:56:36.053Z,87.83
2019-05-20T04:59:10.747Z,90.67
2019-05-20T05:01:40.913Z,88.73
2019-05-20T05:04:11.037Z,97.10
2019-05-20T05:06:41.809Z,97.70
2019-05-20T05:09:15.040Z,86.30
2019-05-20T05:11:43.358Z,72.40
2019-05-20T05:14:13.448Z,87.10
2019-05-20T05:16:43.669Z,79.40
2019-05-20T05:19:13.844Z,76.50
2019-05-20T05:21:44.053Z,87.77
2019-05-20T05:24:14.119Z,71.67
2019-05-20T05:26:47.315Z,75.87
2019-05-20T05:29:17.730Z,73.20
2019-05-20T05:31:47.847Z,79.93
2019-05-20T05:34:18.004Z,84.57
2019-05-20T05:36:48.681Z,63.33
2019-05-20T05:39:19.333Z,72.93
2019-05-20T05:41:49.610Z,80.90
2019-05-20T05:44:20.157Z,76.10
2019-05-20T05:46:50.892Z,82.60
2019-05-20T05:49:21.459Z,79.37
2019-05-20T05:51:51.704Z,78.90
2019-05-20T05:54:23.782Z,68.60
2019-05-20T05:56:54.420Z,70.57
2019-05-20T05:59:24.804Z,65.73
2019-05-20T06:01:54.801Z,68.73
2019-05-20T06:04:24.915Z,64.73
2019-05-20T06:06:55.232Z,77.37
2019-05-20T06:09:25.360Z,71.30
2019-05-20T06:11:55.371Z,67.87
2019-05-20T06:14:26.447Z,75.17
2019-05-20T06:16:56.647Z,71.83
2019-05-20T06:19:26.832Z,70.50
2019-05-20T06:21:57.740Z,74.10
2019-05-20T06:24:28.008Z,67.23
2019-05-20T06:26:58.125Z,66.67
2019-05-20T06:29:29.212Z,69.90
2019-05-20T06:31:59.354Z,64.03
2019-05-20T06:34:34.478Z,59.40
2019-05-20T06:37:07.876Z,58.60
2019-05-20T06:39:39.336Z,56.37
2019-05-20T06:42:11.247Z,65.33
2019-05-20T06:44:52.100Z,66.23
2019-05-20T06:47:13.875Z,70.37
2019-05-20T06:49:44.585Z,58.83
2019-05-20T06:52:17.288Z,61.30
2019-05-20T06:54:47.642Z,60.73
2019-05-20T06:57:17.880Z,75.70
2019-05-20T06:59:49.316Z,61.43
2019-05-20T07:02:19.743Z,67.33
2019-05-20T07:04:50.055Z,71.30
2019-05-20T07:07:21.609Z,70.30
2019-05-20T07:09:58.211Z,69.03
2019-05-20T07:12:40.563Z,74.40
2019-05-20T07:15:03.055Z,63.47
2019-05-20T07:17:33.708Z,61.00
2019-05-20T07:20:04.755Z,66.40
2019-05-20T07:22:53.857Z,58.63
2019-05-20T07:25:07.441Z,64.57
2019-05-20T07:27:38.250Z,59.10
2019-05-20T07:30:09.802Z,51.43
2019-05-20T07:32:40.623Z,55.97
2019-05-20T07:35:10.863Z,55.73
2019-05-20T07:37:41.597Z,67.77
2019-05-20T07:40:13.266Z,59.77
2019-05-20T07:42:43.710Z,58.50
2019-05-20T07:45:14.281Z,51.63
2019-05-20T07:47:44.335Z,50.83
2019-05-20T07:50:26.463Z,60.63
2019-05-20T07:53:00.176Z,50.93
2019-05-20T07:55:30.882Z,52.93
2019-05-20T07:58:05.137Z,51.20
2019-05-20T08:00:36.902Z,50.30
2019-05-20T08:03:09.230Z,60.43
2019-05-20T08:05:41.837Z,56.70
2019-05-20T08:08:12.315Z,58.60
2019-05-20T08:10:42.438Z,64.50
2019-05-20T08:13:12.781Z,64.23
2019-05-20T08:15:54.558Z,54.90
2019-05-20T08:18:36.732Z,60.03
2019-05-20T08:21:07.240Z,53.00
2019-05-20T08:23:38.357Z,60.10
2019-05-20T08:26:08.977Z,65.53
2019-05-20T08:28:40.522Z,64.87
2019-05-20T08:31:13.610Z,65.00
2019-05-20T08:34:02.139Z,54.40
2019-05-20T08:36:33.487Z,57.23
2019-05-20T08:39:06.406Z,54.37
2019-05-20T08:41:42.486Z,59.33
2019-05-20T08:44:14.839Z,56.00
2019-05-20T08:46:46.759Z,48.90
2019-05-20T08:49:17.015Z,50.27
2019-05-20T08:51:47.409Z,56.80
2019-05-20T08:54:17.776Z,57.60
2019-05-20T08:56:49.381Z,54.17
2019-05-20T08:59:20.570Z,55.20
2019-05-20T09:01:51.169Z,57.60
2019-05-20T09:04:21.400Z,48.90
2019-05-20T09:06:51.642Z,53.90
2019-05-20T09:09:22.792Z,56.37
2019-05-20T09:11:52.953Z,55.67
2019-05-20T09:14:22.930Z,59.00
2019-05-20T09:16:53.518Z,57.80
2019-05-20T09:19:23.755Z,58.90
2019-05-20T09:21:53.874Z,62.87
2019-05-20T09:24:24.153Z,55.13
2019-05-20T09:26:54.404Z,53.20
2019-05-20T09:29:24.636Z,58.27
2019-05-20T09:31:58.660Z,59.67
2019-05-20T09:34:29.082Z,56.23
2019-05-20T09:36:59.518Z,61.20
2019-05-20T09:39:29.713Z,62.13
2019-05-20T09:41:59.674Z,64.47
2019-05-20T09:44:29.843Z,68.30
2019-05-20T09:47:00.081Z,64.40
2019-05-20T09:49:31.283Z,63.60
2019-05-20T09:52:01.619Z,70.83
2019-05-20T09:54:31.647Z,72.77
2019-05-20T09:57:01.864Z,72.70
2019-05-20T09:59:42.775Z,65.17
2019-05-20T10:02:03.674Z,59.63
2019-05-20T10:04:34.028Z,67.70
2019-05-20T10:07:04.733Z,75.80
2019-05-20T10:09:35.572Z,64.70
2019-05-20T10:12:05.973Z,64.50
2019-05-20T10:14:36.268Z,63.80
2019-05-20T10:17:08.396Z,62.17
2019-05-20T10:19:41.910Z,65.47
2019-05-20T10:22:12.136Z,75.47
2019-05-20T10:24:42.143Z,68.83
2019-05-20T10:27:17.151Z,65.30
2019-05-20T10:29:47.848Z,66.20
2019-05-20T10:32:18.404Z,66.77
2019-05-20T10:34:48.389Z,70.67
2019-05-20T10:37:18.644Z,70.30
2019-05-20T10:39:49.060Z,74.67
2019-05-20T10:42:19.361Z,68.43
2019-05-20T10:44:49.436Z,64.87
2019-05-20T10:47:19.932Z,65.47
2019-05-20T10:49:49.884Z,70.50
2019-05-20T10:52:21.278Z,73.80
2019-05-20T10:54:51.749Z,68.70
2019-05-20T10:57:21.938Z,74.90
2019-05-20T10:59:52.255Z,70.97
2019-05-20T11:02:23.195Z,69.47
2019-05-20T11:04:53.496Z,66.43
2019-05-20T11:07:26.293Z,74.07
2019-05-20T11:09:56.368Z,68.20
2019-05-20T11:12:27.833Z,67.97
2019-05-20T11:14:59.040Z,67.30
2019-05-20T11:17:49.959Z,73.13
2019-05-20T11:20:20.248Z,68.10
2019-05-20T11:22:50.210Z,65.43
2019-05-20T11:25:20.513Z,68.00
2019-05-20T11:27:54.311Z,71.60
2019-05-20T11:30:24.799Z,89.17
2019-05-20T11:32:55.557Z,67.50
2019-05-20T11:35:25.784Z,70.03
2019-05-20T11:37:55.915Z,72.87
2019-05-20T11:40:26.766Z,77.17
2019-05-20T11:42:56.811Z,69.43
2019-05-20T11:45:27.140Z,69.90
2019-05-20T11:47:57.302Z,71.73
2019-05-20T11:50:28.322Z,79.87
2019-05-20T11:52:58.885Z,74.03
2019-05-20T11:55:29.512Z,70.80
2019-05-20T11:58:14.542Z,65.83
2019-05-20T12:00:32.251Z,76.27
2019-05-20T12:03:03.076Z,69.23
2019-05-20T12:05:33.242Z,70.53
2019-05-20T12:08:03.750Z,72.10
2019-05-20T12:10:34.344Z,79.10
2019-05-20T12:13:04.733Z,81.13
2019-05-20T12:15:35.383Z,72.43
2019-05-20T12:18:14.029Z,67.93
2019-05-20T12:20:44.332Z,78.53
2019-05-20T12:23:14.221Z,67.13
2019-05-20T12:25:56.005Z,65.50
2019-05-20T12:28:29.861Z,72.50
2019-05-20T12:31:00.420Z,75.73
2019-05-20T12:33:30.565Z,72.03
2019-05-20T12:36:22.123Z,68.70
2019-05-20T12:38:52.447Z,68.13
2019-05-20T12:41:22.948Z,78.03
2019-05-20T12:44:09.919Z,66.13
2019-05-20T12:46:25.086Z,74.80
2019-05-20T12:48:59.561Z,73.03
2019-05-20T12:51:30.768Z,69.97
2019-05-20T12:54:01.802Z,70.10
2019-05-20T12:56:33.221Z,72.40
2019-05-20T12:59:03.882Z,78.90
2019-05-20T13:01:36.450Z,78.37
2019-05-20T13:04:07.325Z,64.57
2019-05-20T13:06:37.436Z,74.97
2019-05-20T13:09:08.488Z,68.60
2019-05-20T13:11:38.857Z,70.63
2019-05-20T13:14:08.855Z,68.80
2019-05-20T13:16:38.866Z,66.77
2019-05-20T13:19:08.999Z,67.57
2019-05-20T13:21:39.959Z,70.83
2019-05-20T13:24:10.773Z,65.40
2019-05-20T13:26:41.062Z,71.97
2019-05-20T13:29:11.148Z,67.53
2019-05-20T13:31:41.988Z,68.17
2019-05-20T13:34:12.044Z,60.83
2019-05-20T13:36:42.527Z,67.63
2019-05-20T13:39:12.391Z,62.77
2019-05-20T13:41:42.219Z,64.17
2019-05-20T13:44:12.489Z,59.43
2019-05-20T13:46:45.766Z,69.03
2019-05-20T13:49:16.113Z,65.83
2019-05-20T13:51:46.061Z,63.60
2019-05-20T13:54:16.358Z,63.57
2019-05-20T13:56:46.826Z,65.57
2019-05-20T13:59:16.844Z,64.43
2019-05-20T14:01:47.181Z,69.27
2019-05-20T14:04:18.055Z,56.90
2019-05-20T14:06:48.061Z,93.47
2019-05-20T14:09:18.491Z,65.97
2019-05-20T14:11:48.524Z,62.20
2019-05-20T14:14:18.645Z,68.60
2019-05-20T14:16:50.755Z,67.37
2019-05-20T14:19:22.756Z,62.00
2019-05-20T14:21:53.053Z,61.70
2019-05-20T14:24:23.184Z,60.47
2019-05-20T14:26:54.602Z,61.20
2019-05-20T14:29:24.634Z,55.37
2019-05-20T14:31:54.951Z,61.70
2019-05-20T14:34:25.275Z,62.43
2019-05-20T14:36:55.897Z,59.87
2019-05-20T14:39:26.106Z,57.57
2019-05-20T14:41:56.097Z,55.47
2019-05-20T14:44:26.205Z,61.63
2019-05-20T14:46:56.508Z,58.70
2019-05-20T14:49:26.681Z,56.83
2019-05-20T14:51:57.625Z,57.37
2019-05-20T14:54:27.610Z,60.67
2019-05-20T14:56:57.823Z,52.57
2019-05-20T14:59:28.009Z,52.17
2019-05-20T15:01:58.699Z,50.20
2019-05-20T15:04:29.219Z,54.40
2019-05-20T15:07:00.052Z,55.50
2019-05-20T15:09:30.320Z,55.10
2019-05-20T15:12:00.760Z,52.07
2019-05-20T15:14:31.063Z,55.00
2019-05-20T15:17:01.994Z,55.30
2019-05-20T15:19:32.420Z,54.03
2019-05-20T15:22:02.659Z,54.40
2019-05-20T15:24:32.916Z,49.77
2019-05-20T15:27:03.561Z,51.43
2019-05-20T15:29:33.823Z,50.90
2019-05-20T15:32:03.801Z,57.73
2019-05-20T15:34:38.805Z,52.43
2019-05-20T15:37:08.962Z,52.00
2019-05-20T15:39:39.210Z,51.17
2019-05-20T15:42:11.661Z,50.67
2019-05-20T15:44:42.623Z,51.93
2019-05-20T15:47:13.001Z,48.90
2019-05-20T15:49:43.516Z,51.30
2019-05-20T15:52:13.626Z,51.23
2019-05-20T15:54:43.563Z,51.13
2019-05-20T15:57:16.283Z,45.07
2019-05-20T15:59:46.889Z,55.17
2019-05-20T16:02:17.580Z,50.70
2019-05-20T16:04:48.088Z,48.83
2019-05-20T16:07:18.311Z,50.07
2019-05-20T16:09:48.358Z,54.40
2019-05-20T16:12:18.843Z,49.20
2019-05-20T16:14:51.424Z,47.13
2019-05-20T16:17:20.834Z,52.27
2019-05-20T16:19:53.992Z,50.27
2019-05-20T16:22:25.520Z,47.10
2019-05-20T16:24:57.259Z,50.60
2019-05-20T16:27:27.454Z,49.40
2019-05-20T16:30:06.085Z,49.50
2019-05-20T16:32:30.210Z,47.87
2019-05-20T16:35:00.496Z,49.23
2019-05-20T16:37:30.830Z,49.00
2019-05-20T16:40:01.287Z,53.90
2019-05-20T16:42:31.487Z,50.37
2019-05-20T16:45:01.984Z,49.30
2019-05-20T16:47:32.536Z,54.03
2019-05-20T16:50:09.384Z,51.83
2019-05-20T16:52:39.911Z,50.73
2019-05-20T16:55:10.085Z,63.23
2019-05-20T16:57:40.390Z,48.20
2019-05-20T17:00:29.803Z,53.57
2019-05-20T17:02:42.889Z,56.67
2019-05-20T17:05:13.221Z,60.60
2019-05-20T17:07:43.767Z,50.23
2019-05-20T17:10:14.164Z,58.37
2019-05-20T17:12:44.628Z,55.00
2019-05-20T17:15:15.084Z,62.73
2019-05-20T17:17:45.392Z,62.03
2019-05-20T17:20:15.855Z,58.77
2019-05-20T17:22:46.568Z,60.60
2019-05-20T17:25:16.805Z,63.80
2019-05-20T17:27:46.861Z,53.27
2019-05-20T17:30:17.325Z,57.60
2019-05-20T17:32:47.464Z,53.93
2019-05-20T17:35:17.991Z,56.37
2019-05-20T17:37:48.088Z,69.00
2019-05-20T17:40:19.598Z,57.00
2019-05-20T17:42:49.483Z,56.30
2019-05-20T17:45:19.815Z,57.30
2019-05-20T17:47:49.838Z,51.93
2019-05-20T17:50:28.159Z,48.67
2019-05-20T17:52:58.515Z,58.03
2019-05-20T17:55:29.612Z,52.27
2019-05-20T17:57:59.949Z,52.60
2019-05-20T18:00:30.465Z,50.23
2019-05-20T18:03:00.801Z,57.10
2019-05-20T18:05:31.171Z,57.93
2019-05-20T18:08:01.367Z,60.80
2019-05-20T18:10:32.916Z,56.17
2019-05-20T18:13:03.314Z,58.77
2019-05-20T18:15:33.668Z,53.30
2019-05-20T18:18:04.158Z,56.17
2019-05-20T18:20:34.416Z,55.83
2019-05-20T18:23:05.051Z,59.53
2019-05-20T18:25:37.240Z,54.97
2019-05-20T18:28:08.385Z,54.60
2019-05-20T18:30:38.710Z,57.90
2019-05-20T18:33:09.278Z,55.83
2019-05-20T18:35:39.869Z,59.93
2019-05-20T18:38:09.891Z,51.87
2019-05-20T18:40:39.974Z,56.30
2019-05-20T18:43:10.336Z,58.03
2019-05-20T18:45:40.659Z,52.50
2019-05-20T18:48:10.730Z,51.43
2019-05-20T18:50:41.039Z,54.27
2019-05-20T18:53:11.587Z,55.43
2019-05-20T18:55:41.719Z,57.67
2019-05-20T18:58:12.074Z,60.57
2019-05-20T19:00:42.272Z,56.83
2019-05-20T19:03:12.363Z,58.17
2019-05-20T19:05:42.582Z,65.87
2019-05-20T19:08:13.173Z,58.80
2019-05-20T19:10:43.354Z,58.03
2019-05-20T19:13:14.148Z,58.67
2019-05-20T19:15:44.336Z,50.67
2019-05-20T19:18:14.666Z,54.13
2019-05-20T19:20:44.798Z,57.13
2019-05-20T19:23:16.333Z,52.40
2019-05-20T19:25:46.639Z,52.90
2019-05-20T19:28:16.895Z,52.70
2019-05-20T19:30:46.915Z,51.80
2019-05-20T19:33:17.841Z,52.20
2019-05-20T19:35:48.109Z,46.77
2019-05-20T19:38:18.822Z,51.17
2019-05-20T19:40:49.102Z,55.73
2019-05-20T19:43:19.148Z,48.80
2019-05-20T19:45:49.447Z,44.23
2019-05-20T19:48:19.591Z,45.53
2019-05-20T19:50:49.967Z,49.53
2019-05-20T19:53:20.392Z,40.90
2019-05-20T19:55:51.915Z,47.40
2019-05-20T19:58:22.222Z,39.43
2019-05-20T20:00:52.617Z,39.53
2019-05-20T20:03:22.679Z,42.20
2019-05-20T20:05:52.932Z,39.07
2019-05-20T20:08:23.126Z,36.67
2019-05-20T20:10:54.151Z,42.43
2019-05-20T20:13:24.298Z,37.43
2019-05-20T20:15:54.326Z,41.00
2019-05-20T20:18:24.248Z,41.70
2019-05-20T20:20:54.878Z,36.80
2019-05-20T20:23:25.035Z,33.40
2019-05-20T20:25:54.968Z,36.80
2019-05-20T20:28:25.143Z,34.20
2019-05-20T20:30:55.335Z,37.20
2019-05-20T20:33:25.428Z,34.10
2019-05-20T20:35:57.058Z,34.13
2019-05-20T20:38:27.338Z,35.80
2019-05-20T20:40:57.560Z,33.93
2019-05-20T20:43:27.874Z,38.90
2019-05-20T20:45:58.022Z,37.17
2019-05-20T20:48:28.526Z,36.37
2019-05-20T20:50:58.895Z,36.00
2019-05-20T20:53:29.181Z,37.10
2019-05-20T20:55:59.413Z,35.40
2019-05-20T20:58:30.005Z,35.73
2019-05-20T21:00:59.916Z,36.37
2019-05-20T21:03:30.389Z,31.67
2019-05-20T21:06:00.599Z,34.43
2019-05-20T21:08:30.823Z,36.93
2019-05-20T21:11:01.129Z,39.27
2019-05-20T21:13:32.832Z,36.97
2019-05-20T21:16:03.049Z,38.90
2019-05-20T21:18:33.255Z,43.37
2019-05-20T21:21:03.545Z,44.63
2019-05-20T21:23:34.103Z,40.37
2019-05-20T21:26:04.461Z,44.40
2019-05-20T21:28:34.699Z,41.50
2019-05-20T21:31:04.736Z,41.57
2019-05-20T21:33:34.807Z,42.20
2019-05-20T21:36:05.027Z,45.27
2019-05-20T21:38:35.713Z,43.97
2019-05-20T21:41:05.822Z,51.60
2019-05-20T21:43:36.000Z,48.67
2019-05-20T21:46:05.877Z,46.90
2019-05-20T21:48:36.108Z,49.83
2019-05-20T21:51:06.302Z,49.70
2019-05-20T21:53:36.580Z,47.87
2019-05-20T21:56:06.633Z,49.13
2019-05-20T21:58:36.975Z,46.50
2019-05-20T22:01:07.322Z,41.80
2019-05-20T22:03:37.378Z,51.20
2019-05-20T22:06:07.550Z,47.67
2019-05-20T22:08:37.911Z,52.60
2019-05-20T22:11:07.848Z,48.03
2019-05-20T22:13:37.922Z,49.77
2019-05-20T22:16:08.129Z,43.30
2019-05-20T22:18:38.288Z,44.67
2019-05-20T22:21:10.784Z,47.10
2019-05-20T22:23:51.588Z,45.23
2019-05-20T22:26:21.685Z,41.90
2019-05-20T22:28:51.958Z,43.90
2019-05-20T22:31:22.279Z,44.23
2019-05-20T22:33:52.313Z,45.83
2019-05-20T22:36:22.358Z,41.63
2019-05-20T22:38:53.197Z,47.83
2019-05-20T22:41:24.008Z,45.80
2019-05-20T22:43:54.049Z,43.53
2019-05-20T22:46:24.853Z,44.47
2019-05-20T22:48:55.244Z,46.27
2019-05-20T22:51:25.318Z,44.87
2019-05-20T22:53:55.337Z,43.37
2019-05-20T22:56:26.109Z,44.73
2019-05-20T22:58:56.182Z,43.70
2019-05-20T23:01:26.304Z,41.83
2019-05-20T23:03:56.867Z,45.43
2019-05-20T23:06:27.623Z,46.17
2019-05-20T23:08:57.936Z,47.13
2019-05-20T23:11:28.078Z,45.30
2019-05-20T23:13:58.672Z,44.07
2019-05-20T23:16:28.760Z,42.37
2019-05-20T23:18:59.240Z,43.83
2019-05-20T23:21:29.927Z,41.87
2019-05-20T23:23:59.855Z,48.93
2019-05-20T23:26:30.243Z,44.63
2019-05-20T23:29:01.789Z,49.13
2019-05-20T23:31:31.651Z,46.73
2019-05-20T23:34:12.203Z,45.77
2019-05-20T23:36:33.742Z,51.70
2019-05-20T23:39:05.351Z,46.00
2019-05-20T23:41:35.356Z,42.37
2019-05-20T23:44:06.149Z,50.13
2019-05-20T23:46:36.470Z,48.33
2019-05-20T23:49:06.824Z,43.63
2019-05-20T23:51:36.831Z,43.90
2019-05-20T23:54:07.799Z,46.67
2019-05-20T23:56:37.763Z,40.83
2019-05-20T23:59:08.000Z,48.60
